sensor_id;sensor_type;location;lat;lon;timestamp;temperature;humidity
33023;DHT22;19390;51.460;5.710;2023-04-19T00:00:42;10.30;99.90
33023;DHT22;19390;51.460;5.710;2023-04-19T00:03:10;10.30;99.90
33023;DHT22;19390;51.460;5.710;2023-04-19T00:05:36;10.30;99.90
33023;DHT22;19390;51.460;5.710;2023-04-19T00:08:03;10.30;99.90
33023;DHT22;19390;51.460;5.710;2023-04-19T00:10:29;10.30;99.90
33023;DHT22;19390;51.460;5.710;2023-04-19T00:12:54;10.30;99.90
33023;DHT22;19390;51.460;5.710;2023-04-19T00:15:20;10.30;99.90
33023;DHT22;19390;51.460;5.710;2023-04-19T00:17:46;10.30;99.90
33023;DHT22;19390;51.460;5.710;2023-04-19T00:20:11;10.30;99.90
33023;DHT22;19390;51.460;5.710;2023-04-19T00:22:38;10.30;99.90
33023;DHT22;19390;51.460;5.710;2023-04-19T00:25:03;10.40;99.90
33023;DHT22;19390;51.460;5.710;2023-04-19T00:27:29;10.30;99.90
33023;DHT22;19390;51.460;5.710;2023-04-19T00:29:55;10.30;99.90
33023;DHT22;19390;51.460;5.710;2023-04-19T00:32:22;10.30;99.90
33023;DHT22;19390;51.460;5.710;2023-04-19T00:34:47;10.30;99.90
33023;DHT22;19390;51.460;5.710;2023-04-19T00:37:13;10.30;99.90
33023;DHT22;19390;51.460;5.710;2023-04-19T00:39:39;10.30;99.90
33023;DHT22;19390;51.460;5.710;2023-04-19T00:42:04;10.20;99.90
33023;DHT22;19390;51.460;5.710;2023-04-19T00:44:30;10.30;99.90
33023;DHT22;19390;51.460;5.710;2023-04-19T00:46:56;10.30;99.90
33023;DHT22;19390;51.460;5.710;2023-04-19T00:49:22;10.30;99.90
33023;DHT22;19390;51.460;5.710;2023-04-19T00:51:49;10.30;99.90
33023;DHT22;19390;51.460;5.710;2023-04-19T00:54:16;10.30;99.90
33023;DHT22;19390;51.460;5.710;2023-04-19T00:56:42;10.20;99.90
33023;DHT22;19390;51.460;5.710;2023-04-19T00:59:08;10.20;99.90
33023;DHT22;19390;51.460;5.710;2023-04-19T01:01:34;10.30;99.90
33023;DHT22;19390;51.460;5.710;2023-04-19T01:04:00;10.30;99.90
33023;DHT22;19390;51.460;5.710;2023-04-19T01:06:27;10.30;99.90
33023;DHT22;19390;51.460;5.710;2023-04-19T01:08:54;10.30;99.90
33023;DHT22;19390;51.460;5.710;2023-04-19T01:11:21;10.30;99.90
33023;DHT22;19390;51.460;5.710;2023-04-19T01:13:47;10.30;99.90
33023;DHT22;19390;51.460;5.710;2023-04-19T01:16:12;10.30;99.90
33023;DHT22;19390;51.460;5.710;2023-04-19T01:18:38;10.30;99.90
33023;DHT22;19390;51.460;5.710;2023-04-19T01:21:05;10.30;99.90
33023;DHT22;19390;51.460;5.710;2023-04-19T01:23:31;10.20;99.90
33023;DHT22;19390;51.460;5.710;2023-04-19T01:25:57;10.30;99.90
33023;DHT22;19390;51.460;5.710;2023-04-19T01:28:22;10.30;99.90
33023;DHT22;19390;51.460;5.710;2023-04-19T01:30:48;10.30;99.90
33023;DHT22;19390;51.460;5.710;2023-04-19T01:33:18;10.30;99.90
33023;DHT22;19390;51.460;5.710;2023-04-19T01:35:44;10.30;99.90
33023;DHT22;19390;51.460;5.710;2023-04-19T01:38:09;10.30;99.90
33023;DHT22;19390;51.460;5.710;2023-04-19T01:40:35;10.30;99.90
33023;DHT22;19390;51.460;5.710;2023-04-19T01:43:00;10.30;99.90
33023;DHT22;19390;51.460;5.710;2023-04-19T01:45:26;10.30;99.90
33023;DHT22;19390;51.460;5.710;2023-04-19T01:47:52;10.30;99.90
33023;DHT22;19390;51.460;5.710;2023-04-19T01:50:17;10.30;99.90
33023;DHT22;19390;51.460;5.710;2023-04-19T01:52:43;10.30;99.90
33023;DHT22;19390;51.460;5.710;2023-04-19T01:55:09;10.30;99.90
33023;DHT22;19390;51.460;5.710;2023-04-19T01:57:34;10.30;99.90
33023;DHT22;19390;51.460;5.710;2023-04-19T02:00:01;10.30;99.90
33023;DHT22;19390;51.460;5.710;2023-04-19T02:02:26;10.30;99.90
33023;DHT22;19390;51.460;5.710;2023-04-19T02:04:52;10.30;99.90
33023;DHT22;19390;51.460;5.710;2023-04-19T02:07:17;10.30;99.90
33023;DHT22;19390;51.460;5.710;2023-04-19T02:09:43;10.30;99.90
33023;DHT22;19390;51.460;5.710;2023-04-19T02:12:08;10.40;99.90
33023;DHT22;19390;51.460;5.710;2023-04-19T02:14:34;10.40;99.90
33023;DHT22;19390;51.460;5.710;2023-04-19T02:17:00;10.40;99.90
33023;DHT22;19390;51.460;5.710;2023-04-19T02:19:26;10.50;99.90
33023;DHT22;19390;51.460;5.710;2023-04-19T02:21:51;10.50;99.90
33023;DHT22;19390;51.460;5.710;2023-04-19T02:24:22;10.40;99.90
33023;DHT22;19390;51.460;5.710;2023-04-19T02:26:48;10.40;99.90
33023;DHT22;19390;51.460;5.710;2023-04-19T02:29:13;10.50;99.90
33023;DHT22;19390;51.460;5.710;2023-04-19T02:31:41;10.50;99.90
33023;DHT22;19390;51.460;5.710;2023-04-19T02:34:06;10.50;99.90
33023;DHT22;19390;51.460;5.710;2023-04-19T02:36:32;10.60;99.90
33023;DHT22;19390;51.460;5.710;2023-04-19T02:38:57;10.50;99.90
33023;DHT22;19390;51.460;5.710;2023-04-19T02:41:23;10.50;99.90
33023;DHT22;19390;51.460;5.710;2023-04-19T02:43:49;10.60;99.90
33023;DHT22;19390;51.460;5.710;2023-04-19T02:46:15;10.60;99.90
33023;DHT22;19390;51.460;5.710;2023-04-19T02:48:40;10.60;99.90
33023;DHT22;19390;51.460;5.710;2023-04-19T02:51:06;10.60;99.90
33023;DHT22;19390;51.460;5.710;2023-04-19T02:53:32;10.50;99.90
33023;DHT22;19390;51.460;5.710;2023-04-19T02:55:58;10.60;99.90
33023;DHT22;19390;51.460;5.710;2023-04-19T02:58:23;10.60;99.90
33023;DHT22;19390;51.460;5.710;2023-04-19T03:00:49;10.60;99.90
33023;DHT22;19390;51.460;5.710;2023-04-19T03:03:14;10.60;99.90
33023;DHT22;19390;51.460;5.710;2023-04-19T03:05:40;10.50;99.90
33023;DHT22;19390;51.460;5.710;2023-04-19T03:08:06;10.50;99.90
33023;DHT22;19390;51.460;5.710;2023-04-19T03:10:31;10.50;99.90
33023;DHT22;19390;51.460;5.710;2023-04-19T03:12:57;10.50;99.90
33023;DHT22;19390;51.460;5.710;2023-04-19T03:15:22;10.50;99.90
33023;DHT22;19390;51.460;5.710;2023-04-19T03:17:48;10.50;99.90
33023;DHT22;19390;51.460;5.710;2023-04-19T03:20:13;10.50;99.90
33023;DHT22;19390;51.460;5.710;2023-04-19T03:22:41;10.50;99.90
33023;DHT22;19390;51.460;5.710;2023-04-19T03:25:07;10.50;99.90
33023;DHT22;19390;51.460;5.710;2023-04-19T03:27:35;10.50;99.90
33023;DHT22;19390;51.460;5.710;2023-04-19T03:30:01;10.40;99.90
33023;DHT22;19390;51.460;5.710;2023-04-19T03:32:26;10.40;99.90
33023;DHT22;19390;51.460;5.710;2023-04-19T03:34:52;10.40;99.90
33023;DHT22;19390;51.460;5.710;2023-04-19T03:37:18;10.40;99.90
33023;DHT22;19390;51.460;5.710;2023-04-19T03:39:43;10.40;99.90
33023;DHT22;19390;51.460;5.710;2023-04-19T03:42:09;10.40;99.90
33023;DHT22;19390;51.460;5.710;2023-04-19T03:44:34;10.40;99.90
33023;DHT22;19390;51.460;5.710;2023-04-19T03:47:00;10.40;99.90
33023;DHT22;19390;51.460;5.710;2023-04-19T03:49:26;10.40;99.90
33023;DHT22;19390;51.460;5.710;2023-04-19T03:51:51;10.30;99.90
33023;DHT22;19390;51.460;5.710;2023-04-19T03:54:17;10.30;99.90
33023;DHT22;19390;51.460;5.710;2023-04-19T03:56:43;10.30;99.90
33023;DHT22;19390;51.460;5.710;2023-04-19T03:59:08;10.30;99.90
33023;DHT22;19390;51.460;5.710;2023-04-19T04:01:34;10.20;99.90
33023;DHT22;19390;51.460;5.710;2023-04-19T04:04:06;10.30;99.90
33023;DHT22;19390;51.460;5.710;2023-04-19T04:06:31;10.30;99.90
33023;DHT22;19390;51.460;5.710;2023-04-19T04:08:57;10.20;99.90
33023;DHT22;19390;51.460;5.710;2023-04-19T04:11:23;10.20;99.90
33023;DHT22;19390;51.460;5.710;2023-04-19T04:13:49;10.20;99.90
33023;DHT22;19390;51.460;5.710;2023-04-19T04:16:15;10.10;99.90
33023;DHT22;19390;51.460;5.710;2023-04-19T04:18:41;10.10;99.90
33023;DHT22;19390;51.460;5.710;2023-04-19T04:21:06;10.10;99.90
33023;DHT22;19390;51.460;5.710;2023-04-19T04:23:32;10.00;99.90
33023;DHT22;19390;51.460;5.710;2023-04-19T04:25:59;10.00;99.90
33023;DHT22;19390;51.460;5.710;2023-04-19T04:28:26;10.00;99.90
33023;DHT22;19390;51.460;5.710;2023-04-19T04:30:53;9.90;99.90
33023;DHT22;19390;51.460;5.710;2023-04-19T04:33:26;9.90;99.90
33023;DHT22;19390;51.460;5.710;2023-04-19T04:35:53;9.90;99.90
33023;DHT22;19390;51.460;5.710;2023-04-19T04:38:19;9.90;99.90
33023;DHT22;19390;51.460;5.710;2023-04-19T04:40:52;9.90;99.90
33023;DHT22;19390;51.460;5.710;2023-04-19T04:43:24;9.80;99.90
33023;DHT22;19390;51.460;5.710;2023-04-19T04:45:53;9.80;99.90
33023;DHT22;19390;51.460;5.710;2023-04-19T04:48:19;9.80;99.90
33023;DHT22;19390;51.460;5.710;2023-04-19T04:50:45;9.80;99.90
33023;DHT22;19390;51.460;5.710;2023-04-19T04:53:11;9.80;99.90
33023;DHT22;19390;51.460;5.710;2023-04-19T04:55:36;9.80;99.90
33023;DHT22;19390;51.460;5.710;2023-04-19T04:58:02;9.80;99.90
33023;DHT22;19390;51.460;5.710;2023-04-19T05:00:30;9.70;99.90
33023;DHT22;19390;51.460;5.710;2023-04-19T05:02:56;9.60;99.90
33023;DHT22;19390;51.460;5.710;2023-04-19T05:05:22;9.50;99.90
33023;DHT22;19390;51.460;5.710;2023-04-19T05:07:47;9.40;99.90
33023;DHT22;19390;51.460;5.710;2023-04-19T05:10:13;9.40;99.90
33023;DHT22;19390;51.460;5.710;2023-04-19T05:12:38;9.30;99.90
33023;DHT22;19390;51.460;5.710;2023-04-19T05:15:04;9.30;99.90
33023;DHT22;19390;51.460;5.710;2023-04-19T05:17:30;9.30;99.90
33023;DHT22;19390;51.460;5.710;2023-04-19T05:19:56;9.40;99.90
33023;DHT22;19390;51.460;5.710;2023-04-19T05:22:22;9.40;99.90
33023;DHT22;19390;51.460;5.710;2023-04-19T05:24:47;9.70;99.90
33023;DHT22;19390;51.460;5.710;2023-04-19T05:27:14;9.60;99.90
33023;DHT22;19390;51.460;5.710;2023-04-19T05:29:40;9.90;99.90
33023;DHT22;19390;51.460;5.710;2023-04-19T05:32:05;10.40;99.90
33023;DHT22;19390;51.460;5.710;2023-04-19T05:34:32;11.40;99.90
33023;DHT22;19390;51.460;5.710;2023-04-19T05:36:58;13.00;1.00
33023;DHT22;19390;51.460;5.710;2023-04-19T05:39:24;13.10;99.90
33023;DHT22;19390;51.460;5.710;2023-04-19T05:41:49;11.00;1.00
33023;DHT22;19390;51.460;5.710;2023-04-19T05:44:15;9.90;99.90
33023;DHT22;19390;51.460;5.710;2023-04-19T05:46:40;9.60;99.90
33023;DHT22;19390;51.460;5.710;2023-04-19T05:49:06;9.60;99.90
33023;DHT22;19390;51.460;5.710;2023-04-19T05:51:31;9.50;99.90
33023;DHT22;19390;51.460;5.710;2023-04-19T05:53:59;9.40;99.90
33023;DHT22;19390;51.460;5.710;2023-04-19T05:56:25;9.40;99.90
33023;DHT22;19390;51.460;5.710;2023-04-19T05:58:50;9.30;99.90
33023;DHT22;19390;51.460;5.710;2023-04-19T06:01:16;9.40;99.90
33023;DHT22;19390;51.460;5.710;2023-04-19T06:03:41;9.50;99.90
33023;DHT22;19390;51.460;5.710;2023-04-19T06:06:07;9.60;99.90
33023;DHT22;19390;51.460;5.710;2023-04-19T06:08:33;9.80;99.90
33023;DHT22;19390;51.460;5.710;2023-04-19T06:10:59;9.80;99.90
33023;DHT22;19390;51.460;5.710;2023-04-19T06:13:24;10.00;99.90
33023;DHT22;19390;51.460;5.710;2023-04-19T06:15:50;10.20;99.90
33023;DHT22;19390;51.460;5.710;2023-04-19T06:18:16;10.60;99.90
33023;DHT22;19390;51.460;5.710;2023-04-19T06:20:41;12.80;1.00
33023;DHT22;19390;51.460;5.710;2023-04-19T06:23:07;15.00;1.00
33023;DHT22;19390;51.460;5.710;2023-04-19T06:25:32;14.40;99.90
33023;DHT22;19390;51.460;5.710;2023-04-19T06:27:58;13.00;1.00
33023;DHT22;19390;51.460;5.710;2023-04-19T06:30:24;12.90;1.00
33023;DHT22;19390;51.460;5.710;2023-04-19T06:32:49;13.50;1.00
33023;DHT22;19390;51.460;5.710;2023-04-19T06:35:15;15.00;1.00
33023;DHT22;19390;51.460;5.710;2023-04-19T06:37:41;15.50;1.00
33023;DHT22;19390;51.460;5.710;2023-04-19T06:40:07;14.70;1.00
33023;DHT22;19390;51.460;5.710;2023-04-19T06:42:33;15.70;99.90
33023;DHT22;19390;51.460;5.710;2023-04-19T06:44:59;15.70;1.00
33023;DHT22;19390;51.460;5.710;2023-04-19T06:47:25;15.90;1.00
33023;DHT22;19390;51.460;5.710;2023-04-19T06:49:51;15.00;1.00
33023;DHT22;19390;51.460;5.710;2023-04-19T06:52:16;17.50;99.90
33023;DHT22;19390;51.460;5.710;2023-04-19T06:54:46;16.50;99.90
33023;DHT22;19390;51.460;5.710;2023-04-19T06:57:12;16.30;1.00
33023;DHT22;19390;51.460;5.710;2023-04-19T06:59:38;15.90;1.00
33023;DHT22;19390;51.460;5.710;2023-04-19T07:02:04;16.10;99.90
33023;DHT22;19390;51.460;5.710;2023-04-19T07:04:30;18.10;1.00
33023;DHT22;19390;51.460;5.710;2023-04-19T07:06:56;17.40;1.00
33023;DHT22;19390;51.460;5.710;2023-04-19T07:09:21;16.50;1.00
33023;DHT22;19390;51.460;5.710;2023-04-19T07:11:47;17.60;1.00
33023;DHT22;19390;51.460;5.710;2023-04-19T07:14:12;18.20;1.00
33023;DHT22;19390;51.460;5.710;2023-04-19T07:16:38;18.10;99.90
33023;DHT22;19390;51.460;5.710;2023-04-19T07:19:04;17.70;1.00
33023;DHT22;19390;51.460;5.710;2023-04-19T07:21:29;16.80;99.90
33023;DHT22;19390;51.460;5.710;2023-04-19T07:23:58;19.20;1.00
33023;DHT22;19390;51.460;5.710;2023-04-19T07:26:23;16.90;99.90
33023;DHT22;19390;51.460;5.710;2023-04-19T07:28:49;17.10;1.00
33023;DHT22;19390;51.460;5.710;2023-04-19T07:31:15;19.30;1.00
33023;DHT22;19390;51.460;5.710;2023-04-19T07:33:41;18.50;1.00
33023;DHT22;19390;51.460;5.710;2023-04-19T07:36:07;19.10;1.00
33023;DHT22;19390;51.460;5.710;2023-04-19T07:38:33;18.70;1.00
33023;DHT22;19390;51.460;5.710;2023-04-19T07:40:59;20.80;1.00
33023;DHT22;19390;51.460;5.710;2023-04-19T07:43:24;17.80;99.90
33023;DHT22;19390;51.460;5.710;2023-04-19T07:45:51;19.80;99.90
33023;DHT22;19390;51.460;5.710;2023-04-19T07:48:17;20.20;1.00
33023;DHT22;19390;51.460;5.710;2023-04-19T07:50:42;19.60;1.00
33023;DHT22;19390;51.460;5.710;2023-04-19T07:53:08;20.10;99.90
33023;DHT22;19390;51.460;5.710;2023-04-19T07:55:34;21.30;1.00
33023;DHT22;19390;51.460;5.710;2023-04-19T07:58:00;20.10;99.90
33023;DHT22;19390;51.460;5.710;2023-04-19T08:00:26;18.40;1.00
33023;DHT22;19390;51.460;5.710;2023-04-19T08:02:52;18.60;99.90
33023;DHT22;19390;51.460;5.710;2023-04-19T08:05:17;19.00;1.00
33023;DHT22;19390;51.460;5.710;2023-04-19T08:07:44;20.40;1.00
33023;DHT22;19390;51.460;5.710;2023-04-19T08:10:10;20.80;1.00
33023;DHT22;19390;51.460;5.710;2023-04-19T08:12:36;22.40;1.00
33023;DHT22;19390;51.460;5.710;2023-04-19T08:15:03;21.20;99.90
33023;DHT22;19390;51.460;5.710;2023-04-19T08:17:28;21.70;99.90
33023;DHT22;19390;51.460;5.710;2023-04-19T08:19:54;21.80;99.90
33023;DHT22;19390;51.460;5.710;2023-04-19T08:22:20;20.40;1.00
33023;DHT22;19390;51.460;5.710;2023-04-19T08:24:48;22.20;1.00
33023;DHT22;19390;51.460;5.710;2023-04-19T08:27:14;22.00;1.00
33023;DHT22;19390;51.460;5.710;2023-04-19T08:29:40;20.60;99.90
33023;DHT22;19390;51.460;5.710;2023-04-19T08:32:06;20.70;1.00
33023;DHT22;19390;51.460;5.710;2023-04-19T08:34:34;20.80;5.10
33023;DHT22;19390;51.460;5.710;2023-04-19T08:37:00;18.80;99.90
33023;DHT22;19390;51.460;5.710;2023-04-19T08:39:26;22.80;99.90
33023;DHT22;19390;51.460;5.710;2023-04-19T08:41:52;18.60;1.00
33023;DHT22;19390;51.460;5.710;2023-04-19T08:44:20;18.40;1.00
33023;DHT22;19390;51.460;5.710;2023-04-19T08:46:47;18.50;1.00
33023;DHT22;19390;51.460;5.710;2023-04-19T08:49:15;22.10;99.90
33023;DHT22;19390;51.460;5.710;2023-04-19T08:51:42;22.60;99.90
33023;DHT22;19390;51.460;5.710;2023-04-19T08:54:08;23.30;99.90
33023;DHT22;19390;51.460;5.710;2023-04-19T08:56:35;23.20;99.90
33023;DHT22;19390;51.460;5.710;2023-04-19T08:59:01;22.30;99.90
33023;DHT22;19390;51.460;5.710;2023-04-19T09:01:26;21.50;99.90
33023;DHT22;19390;51.460;5.710;2023-04-19T09:03:52;22.80;99.90
33023;DHT22;19390;51.460;5.710;2023-04-19T09:06:18;22.50;99.90
33023;DHT22;19390;51.460;5.710;2023-04-19T09:08:43;22.60;99.90
33023;DHT22;19390;51.460;5.710;2023-04-19T09:11:09;21.60;92.80
33023;DHT22;19390;51.460;5.710;2023-04-19T09:13:35;20.40;1.00
33023;DHT22;19390;51.460;5.710;2023-04-19T09:16:05;19.40;1.00
33023;DHT22;19390;51.460;5.710;2023-04-19T09:18:32;16.80;1.00
33023;DHT22;19390;51.460;5.710;2023-04-19T09:20:58;21.50;1.00
33023;DHT22;19390;51.460;5.710;2023-04-19T09:23:26;22.60;99.90
33023;DHT22;19390;51.460;5.710;2023-04-19T09:25:55;22.00;99.90
33023;DHT22;19390;51.460;5.710;2023-04-19T09:28:25;18.80;99.90
33023;DHT22;19390;51.460;5.710;2023-04-19T09:30:52;22.10;99.90
33023;DHT22;19390;51.460;5.710;2023-04-19T09:33:37;20.40;99.90
33023;DHT22;19390;51.460;5.710;2023-04-19T09:36:05;21.90;99.90
33023;DHT22;19390;51.460;5.710;2023-04-19T09:38:45;22.50;99.90
33023;DHT22;19390;51.460;5.710;2023-04-19T09:41:12;21.90;99.90
33023;DHT22;19390;51.460;5.710;2023-04-19T09:43:37;21.80;99.90
33023;DHT22;19390;51.460;5.710;2023-04-19T09:46:03;21.80;99.90
33023;DHT22;19390;51.460;5.710;2023-04-19T09:48:28;21.90;99.90
33023;DHT22;19390;51.460;5.710;2023-04-19T09:50:56;21.20;99.90
33023;DHT22;19390;51.460;5.710;2023-04-19T09:53:23;19.40;99.90
33023;DHT22;19390;51.460;5.710;2023-04-19T09:55:49;19.70;99.90
33023;DHT22;19390;51.460;5.710;2023-04-19T09:58:15;22.20;99.90
33023;DHT22;19390;51.460;5.710;2023-04-19T10:00:43;22.60;99.90
33023;DHT22;19390;51.460;5.710;2023-04-19T10:03:09;19.60;99.90
33023;DHT22;19390;51.460;5.710;2023-04-19T10:05:38;21.30;99.90
33023;DHT22;19390;51.460;5.710;2023-04-19T10:08:06;22.20;99.90
33023;DHT22;19390;51.460;5.710;2023-04-19T10:10:32;19.60;99.90
33023;DHT22;19390;51.460;5.710;2023-04-19T10:13:00;20.80;99.90
33023;DHT22;19390;51.460;5.710;2023-04-19T10:15:28;22.30;99.90
33023;DHT22;19390;51.460;5.710;2023-04-19T10:17:54;20.60;99.90
33023;DHT22;19390;51.460;5.710;2023-04-19T10:20:31;23.20;99.90
33023;DHT22;19390;51.460;5.710;2023-04-19T10:22:58;21.10;99.90
33023;DHT22;19390;51.460;5.710;2023-04-19T10:25:28;22.60;99.90
33023;DHT22;19390;51.460;5.710;2023-04-19T10:27:54;23.00;99.90
33023;DHT22;19390;51.460;5.710;2023-04-19T10:30:21;21.50;22.00
33023;DHT22;19390;51.460;5.710;2023-04-19T10:32:58;21.30;99.90
33023;DHT22;19390;51.460;5.710;2023-04-19T10:35:43;20.10;93.30
33023;DHT22;19390;51.460;5.710;2023-04-19T10:38:11;20.30;1.00
33023;DHT22;19390;51.460;5.710;2023-04-19T10:40:54;22.60;99.90
33023;DHT22;19390;51.460;5.710;2023-04-19T10:43:34;20.90;99.90
33023;DHT22;19390;51.460;5.710;2023-04-19T10:46:06;19.80;1.00
33023;DHT22;19390;51.460;5.710;2023-04-19T10:48:37;20.70;1.00
33023;DHT22;19390;51.460;5.710;2023-04-19T10:51:10;21.20;1.00
33023;DHT22;19390;51.460;5.710;2023-04-19T10:56:11;22.10;99.90
33023;DHT22;19390;51.460;5.710;2023-04-19T11:01:45;20.80;1.00
33023;DHT22;19390;51.460;5.710;2023-04-19T11:04:15;21.60;99.90
33023;DHT22;19390;51.460;5.710;2023-04-19T11:12:03;21.30;1.00
33023;DHT22;19390;51.460;5.710;2023-04-19T11:14:32;21.80;1.00
33023;DHT22;19390;51.460;5.710;2023-04-19T11:16:59;21.10;99.90
33023;DHT22;19390;51.460;5.710;2023-04-19T11:19:24;21.30;99.90
33023;DHT22;19390;51.460;5.710;2023-04-19T11:21:50;21.50;99.90
33023;DHT22;19390;51.460;5.710;2023-04-19T11:24:16;18.30;1.00
33023;DHT22;19390;51.460;5.710;2023-04-19T11:26:44;19.80;99.90
33023;DHT22;19390;51.460;5.710;2023-04-19T11:29:11;17.60;99.90
33023;DHT22;19390;51.460;5.710;2023-04-19T11:31:36;19.80;42.30
33023;DHT22;19390;51.460;5.710;2023-04-19T11:34:03;20.70;99.90
33023;DHT22;19390;51.460;5.710;2023-04-19T11:36:30;21.60;99.90
33023;DHT22;19390;51.460;5.710;2023-04-19T11:38:56;19.20;99.90
33023;DHT22;19390;51.460;5.710;2023-04-19T11:41:22;19.00;99.90
33023;DHT22;19390;51.460;5.710;2023-04-19T11:43:48;22.00;99.90
33023;DHT22;19390;51.460;5.710;2023-04-19T11:46:13;20.40;99.90
33023;DHT22;19390;51.460;5.710;2023-04-19T11:48:50;22.20;99.90
33023;DHT22;19390;51.460;5.710;2023-04-19T11:51:16;22.20;99.90
33023;DHT22;19390;51.460;5.710;2023-04-19T11:53:42;20.60;99.90
33023;DHT22;19390;51.460;5.710;2023-04-19T11:56:08;19.70;99.90
33023;DHT22;19390;51.460;5.710;2023-04-19T12:01:06;20.10;99.90
33023;DHT22;19390;51.460;5.710;2023-04-19T12:03:33;19.40;99.90
33023;DHT22;19390;51.460;5.710;2023-04-19T12:06:00;20.40;99.90
33023;DHT22;19390;51.460;5.710;2023-04-19T12:08:37;21.90;99.90
33023;DHT22;19390;51.460;5.710;2023-04-19T12:11:04;18.00;99.90
33023;DHT22;19390;51.460;5.710;2023-04-19T12:13:30;19.80;99.90
33023;DHT22;19390;51.460;5.710;2023-04-19T12:15:56;21.10;99.90
33023;DHT22;19390;51.460;5.710;2023-04-19T12:18:22;21.70;99.90
33023;DHT22;19390;51.460;5.710;2023-04-19T12:20:50;20.60;99.90
33023;DHT22;19390;51.460;5.710;2023-04-19T12:23:17;20.10;99.90
33023;DHT22;19390;51.460;5.710;2023-04-19T12:25:44;21.50;99.90
33023;DHT22;19390;51.460;5.710;2023-04-19T12:28:11;21.50;99.90
33023;DHT22;19390;51.460;5.710;2023-04-19T12:30:38;22.00;99.90
33023;DHT22;19390;51.460;5.710;2023-04-19T12:33:05;20.50;99.90
33023;DHT22;19390;51.460;5.710;2023-04-19T12:35:31;20.00;99.90
33023;DHT22;19390;51.460;5.710;2023-04-19T12:37:57;21.90;99.90
33023;DHT22;19390;51.460;5.710;2023-04-19T12:40:25;20.40;99.90
33023;DHT22;19390;51.460;5.710;2023-04-19T12:42:51;19.60;99.90
33023;DHT22;19390;51.460;5.710;2023-04-19T12:45:18;19.80;99.90
33023;DHT22;19390;51.460;5.710;2023-04-19T12:47:45;20.30;99.90
33023;DHT22;19390;51.460;5.710;2023-04-19T12:50:13;19.50;99.90
33023;DHT22;19390;51.460;5.710;2023-04-19T12:52:40;18.70;99.90
33023;DHT22;19390;51.460;5.710;2023-04-19T12:55:06;21.50;99.90
33023;DHT22;19390;51.460;5.710;2023-04-19T12:57:32;21.20;99.90
33023;DHT22;19390;51.460;5.710;2023-04-19T12:59:57;21.10;99.90
33023;DHT22;19390;51.460;5.710;2023-04-19T13:02:23;21.90;99.90
33023;DHT22;19390;51.460;5.710;2023-04-19T13:04:49;21.60;99.90
33023;DHT22;19390;51.460;5.710;2023-04-19T13:07:15;20.50;99.90
33023;DHT22;19390;51.460;5.710;2023-04-19T13:09:40;21.20;99.90
33023;DHT22;19390;51.460;5.710;2023-04-19T13:12:06;20.60;99.90
33023;DHT22;19390;51.460;5.710;2023-04-19T13:14:32;21.80;99.90
33023;DHT22;19390;51.460;5.710;2023-04-19T13:16:57;22.60;99.90
33023;DHT22;19390;51.460;5.710;2023-04-19T13:19:23;22.60;99.90
33023;DHT22;19390;51.460;5.710;2023-04-19T13:21:48;20.60;99.90
33023;DHT22;19390;51.460;5.710;2023-04-19T13:24:14;19.70;99.90
33023;DHT22;19390;51.460;5.710;2023-04-19T13:26:40;20.00;99.90
33023;DHT22;19390;51.460;5.710;2023-04-19T13:29:05;20.40;99.90
33023;DHT22;19390;51.460;5.710;2023-04-19T13:31:34;20.10;99.90
33023;DHT22;19390;51.460;5.710;2023-04-19T13:34:00;20.70;99.90
33023;DHT22;19390;51.460;5.710;2023-04-19T13:36:25;19.30;99.90
33023;DHT22;19390;51.460;5.710;2023-04-19T13:38:52;20.90;99.90
33023;DHT22;19390;51.460;5.710;2023-04-19T13:41:18;20.90;99.90
33023;DHT22;19390;51.460;5.710;2023-04-19T13:43:44;20.80;99.90
33023;DHT22;19390;51.460;5.710;2023-04-19T13:46:09;21.10;99.90
33023;DHT22;19390;51.460;5.710;2023-04-19T13:48:35;21.10;99.90
33023;DHT22;19390;51.460;5.710;2023-04-19T13:51:01;20.00;99.90
33023;DHT22;19390;51.460;5.710;2023-04-19T13:53:26;19.80;99.90
33023;DHT22;19390;51.460;5.710;2023-04-19T13:55:53;18.40;99.90
33023;DHT22;19390;51.460;5.710;2023-04-19T13:58:19;19.00;99.90
33023;DHT22;19390;51.460;5.710;2023-04-19T14:00:45;19.70;99.90
33023;DHT22;19390;51.460;5.710;2023-04-19T14:03:12;19.50;99.90
33023;DHT22;19390;51.460;5.710;2023-04-19T14:05:38;20.70;99.90
33023;DHT22;19390;51.460;5.710;2023-04-19T14:08:04;20.40;99.90
33023;DHT22;19390;51.460;5.710;2023-04-19T14:10:30;19.40;99.90
33023;DHT22;19390;51.460;5.710;2023-04-19T14:12:55;18.50;99.90
33023;DHT22;19390;51.460;5.710;2023-04-19T14:15:21;18.20;99.90
33023;DHT22;19390;51.460;5.710;2023-04-19T14:17:48;19.10;99.90
33023;DHT22;19390;51.460;5.710;2023-04-19T14:20:15;19.60;99.90
33023;DHT22;19390;51.460;5.710;2023-04-19T14:22:40;19.80;99.90
33023;DHT22;19390;51.460;5.710;2023-04-19T14:25:06;19.60;99.90
33023;DHT22;19390;51.460;5.710;2023-04-19T14:27:32;19.20;99.90
33023;DHT22;19390;51.460;5.710;2023-04-19T14:29:58;19.30;99.90
33023;DHT22;19390;51.460;5.710;2023-04-19T14:32:23;18.60;99.90
33023;DHT22;19390;51.460;5.710;2023-04-19T14:34:50;18.00;99.90
33023;DHT22;19390;51.460;5.710;2023-04-19T14:37:16;18.10;99.90
33023;DHT22;19390;51.460;5.710;2023-04-19T14:39:43;18.10;99.90
33023;DHT22;19390;51.460;5.710;2023-04-19T14:42:09;17.40;99.90
33023;DHT22;19390;51.460;5.710;2023-04-19T14:44:35;17.30;99.90
33023;DHT22;19390;51.460;5.710;2023-04-19T14:47:01;17.00;99.90
33023;DHT22;19390;51.460;5.710;2023-04-19T14:49:26;17.30;99.90
33023;DHT22;19390;51.460;5.710;2023-04-19T14:51:52;15.70;99.90
33023;DHT22;19390;51.460;5.710;2023-04-19T14:54:18;16.90;99.90
33023;DHT22;19390;51.460;5.710;2023-04-19T14:56:43;17.50;99.90
33023;DHT22;19390;51.460;5.710;2023-04-19T14:59:09;17.10;99.90
33023;DHT22;19390;51.460;5.710;2023-04-19T15:01:35;16.80;99.90
33023;DHT22;19390;51.460;5.710;2023-04-19T15:04:00;17.20;99.90
33023;DHT22;19390;51.460;5.710;2023-04-19T15:06:26;17.40;99.90
33023;DHT22;19390;51.460;5.710;2023-04-19T15:08:51;16.70;99.90
33023;DHT22;19390;51.460;5.710;2023-04-19T15:11:17;17.50;99.90
33023;DHT22;19390;51.460;5.710;2023-04-19T15:13:43;17.40;99.90
33023;DHT22;19390;51.460;5.710;2023-04-19T15:16:08;17.20;99.90
33023;DHT22;19390;51.460;5.710;2023-04-19T15:18:34;17.00;99.90
33023;DHT22;19390;51.460;5.710;2023-04-19T15:21:03;17.10;99.90
33023;DHT22;19390;51.460;5.710;2023-04-19T15:23:29;16.60;99.90
33023;DHT22;19390;51.460;5.710;2023-04-19T15:25:55;16.90;99.90
33023;DHT22;19390;51.460;5.710;2023-04-19T15:28:22;16.30;99.90
33023;DHT22;19390;51.460;5.710;2023-04-19T15:31:00;16.70;99.90
33023;DHT22;19390;51.460;5.710;2023-04-19T15:33:26;17.00;99.90
33023;DHT22;19390;51.460;5.710;2023-04-19T15:35:53;16.90;99.90
33023;DHT22;19390;51.460;5.710;2023-04-19T15:38:23;16.80;99.90
33023;DHT22;19390;51.460;5.710;2023-04-19T15:40:50;16.00;99.90
33023;DHT22;19390;51.460;5.710;2023-04-19T15:43:16;16.30;99.90